createdAt,value
2023-08-16T00:01:49.052Z,9.43
2023-08-16T00:04:16.438Z,7.90
2023-08-16T00:06:44.260Z,8.48
2023-08-16T00:09:11.600Z,8.40
2023-08-16T00:11:38.905Z,9.20
2023-08-16T00:14:06.140Z,7.22
2023-08-16T00:16:34.028Z,7.80
2023-08-16T00:19:02.063Z,7.55
2023-08-16T00:21:29.520Z,7.68
2023-08-16T00:23:56.814Z,7.20
2023-08-16T00:26:24.179Z,7.85
2023-08-16T00:28:52.337Z,8.00
2023-08-16T00:31:21.231Z,7.15
2023-08-16T00:33:48.557Z,7.85
2023-08-16T00:36:16.126Z,7.93
2023-08-16T00:38:46.490Z,7.25
2023-08-16T00:41:14.800Z,7.30
2023-08-16T00:43:42.230Z,7.63
2023-08-16T00:46:15.903Z,7.50
2023-08-16T00:48:44.722Z,7.90
2023-08-16T00:51:12.982Z,6.45
2023-08-16T00:53:42.477Z,7.30
2023-08-16T00:56:16.126Z,6.93
2023-08-16T01:01:12.368Z,6.82
2023-08-16T01:03:41.617Z,7.85
2023-08-16T01:06:09.379Z,6.88
2023-08-16T01:08:37.059Z,7.57
2023-08-16T01:11:45.263Z,7.28
2023-08-16T01:14:30.370Z,6.90
2023-08-16T01:16:58.830Z,7.30
2023-08-16T01:19:32.197Z,6.57
2023-08-16T01:22:57.099Z,7.45
2023-08-16T01:25:36.778Z,8.75
2023-08-16T01:28:04.881Z,8.43
2023-08-16T01:30:32.827Z,8.05
2023-08-16T01:33:11.375Z,8.23
2023-08-16T01:35:40.588Z,7.90
2023-08-16T01:38:11.831Z,6.28
2023-08-16T01:41:38.928Z,7.07
2023-08-16T01:44:09.136Z,7.15
2023-08-16T01:46:39.141Z,6.70
2023-08-16T01:49:08.290Z,6.63
2023-08-16T01:51:35.940Z,6.72
2023-08-16T01:54:03.204Z,7.47
2023-08-16T01:56:30.559Z,6.88
2023-08-16T01:58:57.803Z,6.65
2023-08-16T02:01:25.182Z,7.35
2023-08-16T02:03:55.084Z,7.28
2023-08-16T02:06:23.937Z,7.68
2023-08-16T02:08:52.201Z,7.50
2023-08-16T02:11:21.109Z,8.18
2023-08-16T02:13:48.487Z,7.30
2023-08-16T02:16:15.859Z,7.35
2023-08-16T02:18:44.232Z,7.35
2023-08-16T02:21:13.051Z,7.20
2023-08-16T02:23:40.331Z,7.40
2023-08-16T02:26:07.890Z,7.35
2023-08-16T02:28:35.083Z,8.10
2023-08-16T02:31:06.677Z,8.07
2023-08-16T02:33:37.304Z,8.32
2023-08-16T02:36:05.455Z,8.10
2023-08-16T02:38:32.799Z,7.20
2023-08-16T02:41:01.960Z,7.65
2023-08-16T02:43:29.428Z,7.60
2023-08-16T02:45:56.713Z,7.97
2023-08-16T02:48:23.977Z,7.72
2023-08-16T02:50:51.231Z,7.85
2023-08-16T02:53:18.607Z,7.70
2023-08-16T02:55:45.826Z,7.78
2023-08-16T02:58:13.934Z,7.75
2023-08-16T03:00:41.275Z,8.32
2023-08-16T03:03:08.634Z,7.63
2023-08-16T03:05:35.841Z,8.50
2023-08-16T03:08:03.234Z,7.30
2023-08-16T03:10:30.471Z,7.50
2023-08-16T03:12:57.812Z,7.65
2023-08-16T03:15:25.079Z,8.00
2023-08-16T03:17:52.601Z,7.72
2023-08-16T03:20:19.857Z,8.00
2023-08-16T03:22:47.069Z,7.88
2023-08-16T03:25:18.323Z,7.45
2023-08-16T03:27:45.637Z,6.85
2023-08-16T03:30:13.235Z,8.10
2023-08-16T03:32:42.941Z,6.88
2023-08-16T03:35:10.485Z,7.20
2023-08-16T03:37:38.327Z,7.15
2023-08-16T03:40:07.644Z,8.18
2023-08-16T03:42:35.124Z,7.93
2023-08-16T03:45:02.570Z,7.40
2023-08-16T03:47:31.359Z,7.40
2023-08-16T03:50:00.891Z,7.60
2023-08-16T03:52:28.404Z,7.20
2023-08-16T03:54:55.626Z,7.30
2023-08-16T03:57:24.293Z,7.50
2023-08-16T03:59:53.868Z,6.93
2023-08-16T04:02:23.028Z,7.05
2023-08-16T04:04:54.885Z,8.20
2023-08-16T04:07:23.134Z,7.32
2023-08-16T04:09:50.596Z,7.07
2023-08-16T04:12:18.099Z,6.55
2023-08-16T04:14:45.304Z,5.60
2023-08-16T04:17:12.556Z,7.18
2023-08-16T04:19:40.080Z,6.70
2023-08-16T04:22:07.296Z,6.75
2023-08-16T04:24:35.525Z,6.93
2023-08-16T04:27:02.941Z,6.97
2023-08-16T04:29:30.399Z,6.22
2023-08-16T04:31:58.272Z,6.55
2023-08-16T04:34:25.587Z,6.72
2023-08-16T04:36:52.979Z,5.95
2023-08-16T04:39:21.850Z,6.40
2023-08-16T04:41:49.638Z,7.43
2023-08-16T04:44:18.022Z,6.68
2023-08-16T04:46:45.288Z,7.03
2023-08-16T04:49:12.691Z,7.72
2023-08-16T04:51:40.173Z,8.05
2023-08-16T04:54:08.889Z,9.38
2023-08-16T04:56:36.201Z,9.30
2023-08-16T04:59:03.624Z,8.68
2023-08-16T05:01:30.997Z,8.25
2023-08-16T05:04:01.163Z,7.80
2023-08-16T05:06:28.740Z,7.05
2023-08-16T05:08:56.193Z,7.13
2023-08-16T05:11:23.748Z,6.75
2023-08-16T05:13:51.611Z,6.15
2023-08-16T05:16:19.900Z,6.63
2023-08-16T05:18:48.428Z,6.30
2023-08-16T05:21:16.808Z,5.88
2023-08-16T05:23:44.238Z,5.53
2023-08-16T05:26:11.738Z,5.50
2023-08-16T05:28:38.962Z,5.30
2023-08-16T05:31:13.312Z,5.90
2023-08-16T05:33:41.097Z,5.18
2023-08-16T05:36:09.174Z,5.68
2023-08-16T05:38:36.618Z,5.78
2023-08-16T05:41:07.048Z,5.22
2023-08-16T05:43:34.378Z,5.85
2023-08-16T05:46:01.736Z,5.57
2023-08-16T05:48:29.436Z,5.28
2023-08-16T05:50:56.781Z,5.57
2023-08-16T05:53:24.071Z,5.50
2023-08-16T05:55:51.522Z,5.70
2023-08-16T05:58:18.923Z,5.95
2023-08-16T06:00:47.435Z,5.65
2023-08-16T06:03:15.770Z,5.55
2023-08-16T06:05:43.139Z,5.90
2023-08-16T06:08:10.431Z,5.38
2023-08-16T06:10:37.639Z,5.38
2023-08-16T06:13:05.002Z,5.53
2023-08-16T06:15:32.391Z,5.30
2023-08-16T06:17:59.724Z,5.15
2023-08-16T06:20:27.086Z,5.72
2023-08-16T06:22:54.944Z,6.35
2023-08-16T06:25:22.222Z,6.22
2023-08-16T06:27:50.074Z,6.07
2023-08-16T06:30:17.372Z,6.07
2023-08-16T06:32:46.386Z,6.50
2023-08-16T06:35:14.151Z,5.75
2023-08-16T06:37:42.444Z,5.85
2023-08-16T06:40:10.862Z,5.95
2023-08-16T06:42:38.331Z,5.90
2023-08-16T06:45:06.239Z,6.10
2023-08-16T06:47:33.623Z,5.82
2023-08-16T06:50:01.064Z,5.75
2023-08-16T06:52:28.450Z,6.70
2023-08-16T06:54:55.678Z,6.05
2023-08-16T06:57:23.178Z,5.95
2023-08-16T06:59:51.524Z,5.03
2023-08-16T07:02:19.848Z,5.70
2023-08-16T07:04:47.355Z,6.65
2023-08-16T07:07:15.089Z,5.43
2023-08-16T07:09:42.587Z,6.45
2023-08-16T07:12:10.101Z,6.03
2023-08-16T07:14:37.479Z,5.55
2023-08-16T07:17:06.416Z,5.70
2023-08-16T07:19:33.847Z,6.63
2023-08-16T07:22:01.223Z,5.80
2023-08-16T07:24:28.553Z,5.88
2023-08-16T07:26:55.986Z,6.35
2023-08-16T07:29:23.582Z,5.85
2023-08-16T07:31:52.371Z,5.50
2023-08-16T07:34:19.633Z,5.68
2023-08-16T07:36:46.968Z,5.82
2023-08-16T07:39:14.283Z,6.10
2023-08-16T07:41:41.763Z,6.05
2023-08-16T07:44:10.297Z,5.57
2023-08-16T07:46:37.691Z,5.60
2023-08-16T07:49:05.620Z,5.60
2023-08-16T07:51:32.867Z,5.65
2023-08-16T07:54:00.132Z,5.57
2023-08-16T07:56:27.433Z,6.00
2023-08-16T07:58:54.691Z,5.30
2023-08-16T08:01:22.051Z,5.72
2023-08-16T08:03:49.334Z,5.97
2023-08-16T08:06:16.818Z,5.90
2023-08-16T08:08:44.030Z,6.22
2023-08-16T08:11:11.420Z,5.25
2023-08-16T08:13:39.269Z,5.88
2023-08-16T08:16:07.753Z,5.80
2023-08-16T08:18:35.421Z,5.07
2023-08-16T08:21:02.642Z,5.68
2023-08-16T08:23:30.073Z,5.65
2023-08-16T08:25:57.378Z,5.50
2023-08-16T08:28:24.888Z,5.45
2023-08-16T08:30:52.127Z,4.82
2023-08-16T08:33:19.468Z,5.75
2023-08-16T08:35:48.132Z,5.07
2023-08-16T08:40:43.115Z,5.38
2023-08-16T08:43:11.953Z,5.53
2023-08-16T08:45:40.862Z,5.95
2023-08-16T08:48:08.825Z,5.68
2023-08-16T08:50:39.438Z,5.55
2023-08-16T08:53:06.953Z,5.40
2023-08-16T08:55:34.696Z,4.75
2023-08-16T08:58:03.510Z,4.47
2023-08-16T09:00:38.857Z,4.80
2023-08-16T09:03:09.326Z,4.35
2023-08-16T09:05:40.589Z,4.30
2023-08-16T09:08:10.985Z,4.75
2023-08-16T09:10:39.073Z,4.95
2023-08-16T09:13:07.953Z,5.15
2023-08-16T09:15:35.501Z,5.18
2023-08-16T09:18:12.614Z,5.00
2023-08-16T09:20:41.032Z,5.40
2023-08-16T09:23:08.710Z,5.20
2023-08-16T09:25:36.162Z,5.13
2023-08-16T09:28:03.719Z,4.78
2023-08-16T09:30:31.174Z,5.18
2023-08-16T09:32:58.702Z,5.00
2023-08-16T09:35:32.221Z,4.60
2023-08-16T09:38:01.431Z,5.05
2023-08-16T09:40:29.037Z,4.82
2023-08-16T09:43:03.421Z,5.15
2023-08-16T09:45:35.494Z,4.90
2023-08-16T09:48:04.309Z,4.93
2023-08-16T09:50:51.855Z,5.88
2023-08-16T09:53:35.445Z,4.60
2023-08-16T09:56:04.111Z,4.75
2023-08-16T09:58:33.460Z,4.97
2023-08-16T10:06:38.008Z,4.88
2023-08-16T10:09:10.494Z,4.97
2023-08-16T10:11:39.320Z,4.47
2023-08-16T10:19:05.747Z,5.05
2023-08-16T10:21:39.248Z,4.80
2023-08-16T10:24:10.633Z,4.60
2023-08-16T10:26:39.525Z,5.05
2023-08-16T10:31:48.261Z,5.32
2023-08-16T10:34:16.596Z,5.50
2023-08-16T10:36:44.212Z,5.68
2023-08-16T10:39:25.445Z,5.35
2023-08-16T10:42:07.366Z,5.55
2023-08-16T10:44:34.911Z,5.68
2023-08-16T10:47:02.379Z,5.30
2023-08-16T10:49:41.247Z,5.38
2023-08-16T10:52:08.488Z,6.00
2023-08-16T10:54:36.590Z,5.65
2023-08-16T10:57:09.169Z,5.72
2023-08-16T10:59:40.564Z,5.13
2023-08-16T11:02:17.503Z,5.22
2023-08-16T11:04:47.005Z,5.05
2023-08-16T11:07:16.454Z,5.15
2023-08-16T11:09:44.344Z,5.07
2023-08-16T11:12:11.687Z,5.63
2023-08-16T11:14:38.956Z,5.35
2023-08-16T11:17:06.562Z,5.85
2023-08-16T11:19:35.324Z,5.35
2023-08-16T11:22:03.778Z,5.35
2023-08-16T11:24:32.605Z,5.03
2023-08-16T11:29:27.163Z,5.85
2023-08-16T11:31:58.641Z,5.60
2023-08-16T11:34:26.130Z,5.70
2023-08-16T11:36:53.471Z,5.43
2023-08-16T11:39:23.809Z,5.72
2023-08-16T11:41:51.152Z,5.50
2023-08-16T11:44:18.467Z,6.25
2023-08-16T11:46:50.700Z,5.63
2023-08-16T11:49:23.247Z,5.40
2023-08-16T11:51:52.025Z,5.32
2023-08-16T11:56:53.870Z,5.63
2023-08-16T11:59:32.784Z,5.60
2023-08-16T12:02:08.256Z,5.28
2023-08-16T12:04:35.868Z,5.60
2023-08-16T12:07:10.157Z,5.38
2023-08-16T12:09:44.028Z,6.10
2023-08-16T12:12:12.022Z,5.93
2023-08-16T12:14:39.394Z,6.15
2023-08-16T12:17:06.884Z,5.78
2023-08-16T12:19:34.130Z,6.05
2023-08-16T12:22:01.487Z,5.82
2023-08-16T12:24:28.900Z,6.07
2023-08-16T12:26:56.265Z,5.43
2023-08-16T12:29:23.618Z,5.28
2023-08-16T12:31:51.034Z,6.20
2023-08-16T12:34:18.210Z,6.20
2023-08-16T12:36:45.600Z,5.90
2023-08-16T12:39:12.825Z,6.10
2023-08-16T12:41:40.235Z,6.40
2023-08-16T12:44:07.718Z,6.05
2023-08-16T12:46:35.070Z,5.97
2023-08-16T12:49:02.473Z,6.18
2023-08-16T12:51:29.795Z,6.03
2023-08-16T12:53:57.052Z,6.15
2023-08-16T12:56:24.422Z,5.72
2023-08-16T13:01:21.812Z,6.43
2023-08-16T13:08:50.437Z,6.43
2023-08-16T13:13:49.362Z,6.38
2023-08-16T13:16:30.357Z,6.35
2023-08-16T13:24:37.310Z,5.82
2023-08-16T13:27:03.189Z,6.35
2023-08-16T13:29:42.286Z,6.93
2023-08-16T13:40:02.013Z,6.25
2023-08-16T13:47:31.249Z,7.40
2023-08-16T13:49:58.734Z,7.15
2023-08-16T13:52:26.617Z,6.90
2023-08-16T13:54:54.196Z,6.47
2023-08-16T13:57:22.306Z,7.20
2023-08-16T13:59:49.794Z,7.35
2023-08-16T14:02:17.284Z,8.00
2023-08-16T14:04:44.498Z,6.78
2023-08-16T14:07:11.854Z,7.90
2023-08-16T14:09:39.148Z,7.60
2023-08-16T14:12:07.133Z,7.15
2023-08-16T14:14:34.349Z,6.97
2023-08-16T14:17:01.687Z,7.63
2023-08-16T14:19:29.206Z,7.10
2023-08-16T14:21:58.309Z,7.28
2023-08-16T14:24:26.815Z,7.68
2023-08-16T14:26:54.267Z,7.40
2023-08-16T14:29:21.646Z,7.40
2023-08-16T14:31:48.976Z,7.55
2023-08-16T14:34:16.382Z,7.47
2023-08-16T14:36:44.545Z,7.80
2023-08-16T14:39:12.162Z,7.68
2023-08-16T14:41:39.492Z,7.15
2023-08-16T14:44:07.069Z,7.05
2023-08-16T14:46:34.472Z,7.40
2023-08-16T14:49:01.879Z,7.05
2023-08-16T14:51:31.021Z,7.95
2023-08-16T14:53:58.612Z,7.75
2023-08-16T14:56:26.010Z,7.78
2023-08-16T14:58:53.299Z,7.78
2023-08-16T15:01:20.689Z,7.55
2023-08-16T15:03:48.122Z,8.68
2023-08-16T15:06:15.483Z,8.50
2023-08-16T15:08:42.812Z,8.38
2023-08-16T15:11:20.698Z,8.32
2023-08-16T15:13:48.103Z,7.63
2023-08-16T15:16:15.688Z,7.55
2023-08-16T15:18:43.080Z,8.48
2023-08-16T15:21:10.408Z,7.85
2023-08-16T15:23:38.597Z,8.68
2023-08-16T15:26:07.841Z,8.18
2023-08-16T15:28:37.445Z,8.13
2023-08-16T15:31:06.280Z,8.23
2023-08-16T15:33:35.505Z,7.97
2023-08-16T15:36:02.776Z,7.90
2023-08-16T15:38:46.251Z,7.95
2023-08-16T15:41:14.488Z,7.80
2023-08-16T15:43:44.393Z,7.47
2023-08-16T15:46:14.582Z,8.00
2023-08-16T15:48:42.001Z,8.02
2023-08-16T15:51:09.340Z,7.55
2023-08-16T15:53:36.659Z,8.18
2023-08-16T15:56:04.925Z,7.63
2023-08-16T15:58:32.760Z,8.07
2023-08-16T16:01:04.776Z,8.52
2023-08-16T16:03:32.736Z,7.80
2023-08-16T16:06:00.310Z,9.13
2023-08-16T16:08:30.348Z,7.97
2023-08-16T16:10:58.895Z,8.43
2023-08-16T16:13:26.195Z,7.45
2023-08-16T16:15:54.229Z,8.55
2023-08-16T16:18:23.052Z,8.30
2023-08-16T16:20:50.454Z,8.00
2023-08-16T16:23:17.773Z,8.65
2023-08-16T16:25:45.147Z,7.68
2023-08-16T16:28:12.553Z,8.50
2023-08-16T16:30:39.914Z,8.45
2023-08-16T16:33:07.301Z,7.43
2023-08-16T16:35:38.137Z,8.27
2023-08-16T16:38:08.072Z,8.18
2023-08-16T16:40:35.518Z,8.95
2023-08-16T16:43:02.974Z,8.68
2023-08-16T16:45:30.334Z,8.52
2023-08-16T16:47:57.701Z,8.27
2023-08-16T16:50:25.104Z,8.90
2023-08-16T16:52:52.427Z,8.70
2023-08-16T16:55:19.693Z,8.63
2023-08-16T16:57:47.052Z,9.75
2023-08-16T17:00:14.903Z,9.52
2023-08-16T17:02:42.262Z,8.45
2023-08-16T17:05:10.006Z,8.68
2023-08-16T17:07:37.430Z,8.55
2023-08-16T17:10:05.817Z,8.93
2023-08-16T17:12:33.082Z,9.18
2023-08-16T17:15:02.029Z,9.30
2023-08-16T17:17:29.598Z,8.80
2023-08-16T17:19:57.231Z,8.80
2023-08-16T17:22:24.838Z,8.52
2023-08-16T17:24:52.482Z,8.38
2023-08-16T17:27:19.868Z,8.05
2023-08-16T17:29:47.151Z,8.43
2023-08-16T17:32:14.614Z,8.88
2023-08-16T17:34:41.820Z,8.55
2023-08-16T17:37:09.236Z,9.63
2023-08-16T17:39:36.561Z,9.55
2023-08-16T17:42:04.528Z,9.60
2023-08-16T17:44:31.845Z,9.50
2023-08-16T17:46:59.993Z,9.02
2023-08-16T17:49:27.507Z,8.90
2023-08-16T17:51:54.892Z,9.07
2023-08-16T17:54:22.261Z,9.15
2023-08-16T17:56:49.581Z,9.25
2023-08-16T17:59:16.856Z,9.30
2023-08-16T18:01:44.131Z,9.02
2023-08-16T18:04:11.385Z,8.70
2023-08-16T18:06:38.688Z,8.85
2023-08-16T18:09:06.425Z,9.57
2023-08-16T18:11:34.316Z,9.45
2023-08-16T18:14:02.110Z,8.85
2023-08-16T18:16:29.439Z,8.77
2023-08-16T18:18:56.662Z,9.50
2023-08-16T18:21:24.962Z,9.52
2023-08-16T18:23:52.389Z,9.02
2023-08-16T18:26:19.700Z,9.55
2023-08-16T18:28:47.183Z,10.20
2023-08-16T18:31:15.716Z,10.25
2023-08-16T18:33:44.054Z,9.50
2023-08-16T18:36:12.003Z,9.75
2023-08-16T18:38:39.279Z,10.10
2023-08-16T18:41:07.728Z,9.27
2023-08-16T18:43:35.931Z,10.00
2023-08-16T18:46:03.297Z,10.52
2023-08-16T18:48:30.554Z,10.10
2023-08-16T18:50:59.273Z,9.98
2023-08-16T18:53:26.675Z,10.73
2023-08-16T18:55:54.728Z,10.45
2023-08-16T18:58:22.321Z,10.18
2023-08-16T19:00:55.806Z,9.13
2023-08-16T19:03:23.410Z,9.60
2023-08-16T19:05:50.825Z,10.13
2023-08-16T19:08:20.314Z,7.90
2023-08-16T19:10:49.762Z,8.43
2023-08-16T19:13:17.250Z,7.65
2023-08-16T19:15:44.544Z,7.13
2023-08-16T19:18:13.573Z,6.90
2023-08-16T19:20:41.029Z,6.75
2023-08-16T19:23:08.519Z,7.45
2023-08-16T19:25:35.836Z,7.32
2023-08-16T19:28:03.398Z,7.35
2023-08-16T19:30:30.721Z,7.28
2023-08-16T19:32:58.473Z,6.88
2023-08-16T19:35:28.079Z,6.95
2023-08-16T19:37:55.409Z,6.82
2023-08-16T19:40:23.716Z,7.20
2023-08-16T19:42:51.164Z,6.40
2023-08-16T19:45:18.524Z,7.20
2023-08-16T19:47:45.886Z,7.05
2023-08-16T19:50:20.896Z,6.55
2023-08-16T19:52:54.029Z,7.22
2023-08-16T19:55:22.282Z,5.90
2023-08-16T19:57:51.567Z,5.60
2023-08-16T20:00:21.628Z,6.40
2023-08-16T20:05:18.321Z,5.43
2023-08-16T20:07:46.199Z,6.03
2023-08-16T20:10:14.185Z,5.13
2023-08-16T20:12:42.247Z,5.57
2023-08-16T20:15:11.458Z,5.80
2023-08-16T20:17:39.067Z,5.17
2023-08-16T20:20:11.092Z,5.20
2023-08-16T20:22:38.438Z,5.22
2023-08-16T20:25:07.221Z,5.20
2023-08-16T20:27:34.763Z,5.82
2023-08-16T20:30:01.948Z,4.78
2023-08-16T20:32:29.373Z,6.20
2023-08-16T20:34:59.267Z,5.82
2023-08-16T20:37:28.582Z,5.90
2023-08-16T20:39:56.717Z,5.85
2023-08-16T20:42:36.379Z,6.65
2023-08-16T20:45:08.602Z,6.38
2023-08-16T20:47:37.334Z,6.30
2023-08-16T20:50:05.869Z,6.13
2023-08-16T20:52:33.809Z,6.70
2023-08-16T20:55:03.292Z,5.97
2023-08-16T20:57:30.623Z,6.18
2023-08-16T20:59:58.274Z,6.97
2023-08-16T21:02:25.932Z,6.70
2023-08-16T21:04:53.226Z,6.57
2023-08-16T21:07:20.523Z,7.15
2023-08-16T21:09:48.288Z,7.07
2023-08-16T21:12:15.589Z,6.53
2023-08-16T21:14:46.441Z,7.07
2023-08-16T21:17:14.737Z,7.35
2023-08-16T21:19:42.028Z,7.15
2023-08-16T21:22:09.445Z,7.03
2023-08-16T21:24:36.809Z,6.88
2023-08-16T21:27:04.831Z,7.25
2023-08-16T21:29:34.330Z,6.90
2023-08-16T21:32:02.112Z,7.22
2023-08-16T21:34:29.498Z,6.32
2023-08-16T21:36:57.280Z,6.60
2023-08-16T21:39:24.602Z,6.57
2023-08-16T21:41:51.925Z,6.07
2023-08-16T21:44:20.113Z,6.32
2023-08-16T21:46:47.573Z,6.40
2023-08-16T21:49:15.778Z,6.15
2023-08-16T21:51:43.750Z,6.28
2023-08-16T21:54:11.275Z,5.80
2023-08-16T21:56:38.542Z,5.85
2023-08-16T21:59:05.846Z,5.60
2023-08-16T22:01:33.100Z,5.68
2023-08-16T22:04:00.520Z,5.20
2023-08-16T22:06:27.834Z,6.03
2023-08-16T22:08:55.110Z,5.38
2023-08-16T22:11:22.753Z,5.50
2023-08-16T22:13:50.001Z,5.88
2023-08-16T22:16:17.369Z,5.80
2023-08-16T22:18:44.819Z,5.32
2023-08-16T22:21:12.107Z,5.72
2023-08-16T22:23:39.337Z,5.45
2023-08-16T22:26:07.775Z,5.75
2023-08-16T22:28:35.513Z,5.45
2023-08-16T22:31:02.817Z,5.90
2023-08-16T22:33:30.165Z,5.72
2023-08-16T22:35:57.485Z,6.13
2023-08-16T22:38:25.078Z,6.60
2023-08-16T22:40:52.361Z,5.68
2023-08-16T22:43:19.556Z,6.30
2023-08-16T22:45:46.791Z,6.07
2023-08-16T22:48:15.296Z,6.63
2023-08-16T22:50:42.588Z,5.93
2023-08-16T22:53:09.798Z,5.65
2023-08-16T22:55:37.162Z,6.00
2023-08-16T22:58:04.565Z,5.82
2023-08-16T23:00:32.462Z,5.43
2023-08-16T23:02:59.826Z,5.68
2023-08-16T23:05:27.028Z,5.90
2023-08-16T23:07:54.236Z,6.45
2023-08-16T23:10:21.467Z,6.65
2023-08-16T23:12:48.762Z,6.10
2023-08-16T23:15:16.688Z,6.57
2023-08-16T23:17:44.040Z,6.03
2023-08-16T23:20:12.332Z,5.82
2023-08-16T23:22:41.424Z,6.15
2023-08-16T23:25:10.182Z,6.15
2023-08-16T23:27:38.478Z,6.65
2023-08-16T23:30:07.661Z,6.95
2023-08-16T23:32:35.150Z,6.10
2023-08-16T23:35:03.976Z,6.68
2023-08-16T23:37:32.399Z,6.68
2023-08-16T23:39:59.748Z,7.15
2023-08-16T23:42:27.943Z,6.45
2023-08-16T23:44:55.250Z,6.68
2023-08-16T23:47:22.578Z,7.50
2023-08-16T23:49:49.968Z,7.25
2023-08-16T23:52:17.137Z,7.63
2023-08-16T23:54:44.439Z,7.65
2023-08-16T23:57:11.687Z,6.72
2023-08-16T23:59:41.243Z,6.70
